Terminal Aerodrome Forecast
Issued by NWS Norman, OK

Home | Current Version | Previous Version | Text Only | Print | Product List | Glossary On
Versions: 1 2 3 4 5 6 7 8 9 10 11 12 13 14 15 16 17
000
FTUS44 KOUN 231136
TAFOKC
TAF
KOKC 231136Z 2312/2412 16012KT P6SM FEW150
     FM231600 18020G29KT P6SM SCT150
     FM240100 16015G25KT P6SM BKN120 PROB30 2404/2408 3SM TSRA
      BKN040CB
     FM240900 18017G25KT P6SM BKN020=

USA.gov is the U.S. government's official web portal to all federal, state and local government web resources and services.